CA-0455 weather

Brisbane
Ontario, Canada

Public forecast

Using degrees Celsius for public forecast. Weather courtesy of forecast.io.

Closest aviation weather report (METAR) to Brisbane

Closest report is Lester B. Pearson International Airport, 20.0 nm (37.1 km) E. Retrieved 2019/11/20 23:00 UTC (43 minutes ago):

CYYZ 202300Z 24004KT 15SM FEW045 03/M00 A3017 RMK SC1 SLP223

Closest aviation forecast (TAF) to Brisbane

Closest forecast is Lester B. Pearson International Airport, 20.0 nm (37.1 km) E. Retrieved 2019/11/20 21:42 UTC (2 hours ago):

TAF TAF CYYZ 202038Z 2021/2124 VRB03KT P6SM SCT060 TEMPO 2021/2024 BKN060 FM210000 32005KT P6SM BKN025 TEMPO 2100/2104 BKN020 FM210400 32006KT P6SM FEW006 SCT020 PROB30 2105/2111 1/2SM FG VV002 FM211100 VRB03KT 4SM BR BKN006 OVC015 TEMPO 2111/2115 1/2SM FG VV002 FM211500 16008KT P6SM BKN008 OVC010 FM211700 17008G18KT P6SM BKN012 OVC100 FM211900 17008G18KT P6SM -SHRA SCT020 OVC080 FM212100 18010KT 6SM -RA BR SCT020 OVC040 FM212300 18008KT 4SM -RA BR SCT006 OVC015 RMK NXT FCST BY 210000Z